N5760R KPDK-KGYH
Flight info
| Callsign | N5760R |
|---|---|
| Flight time | 0h 48m |
| Altitude | 7000 |
| Route | DIRECT |
| Aircraft | M20P/L-VGD/C |
Departure
| Time | 2026-04-20 00:37 |
|---|---|
| Airport | DeKalb Peachtree Airport (KPDK) |
Arrival
| Time | 2026-04-20 01:25 |
|---|---|
| Airport | Donaldson Field Airport (KGYH) |
| Time | Latitude | Longitude | Altitude | Speed | Heading |
|---|---|---|---|---|---|
| 2026-04-20 00:17 | 33.88301 | -84.30141 | 992 ft | 0 kts | 170° |
| 2026-04-20 00:30 | 33.88295 | -84.30140 | 996 ft | 1 kts | 167° |
| 2026-04-20 00:31 | 33.88251 | -84.30135 | 990 ft | 8 kts | 161° |
| 2026-04-20 00:31 | 33.88208 | -84.30072 | 989 ft | 11 kts | 156° |
| 2026-04-20 00:31 | 33.88130 | -84.30094 | 990 ft | 13 kts | 202° |
| 2026-04-20 00:31 | 33.88020 | -84.30143 | 988 ft | 22 kts | 199° |
| 2026-04-20 00:32 | 33.87844 | -84.30222 | 984 ft | 30 kts | 201° |
| 2026-04-20 00:32 | 33.87647 | -84.30308 | 989 ft | 31 kts | 199° |
| 2026-04-20 00:32 | 33.87449 | -84.30398 | 998 ft | 29 kts | 200° |
| 2026-04-20 00:32 | 33.87269 | -84.30479 | 996 ft | 28 kts | 200° |
| 2026-04-20 00:33 | 33.87075 | -84.30566 | 998 ft | 29 kts | 201° |
| 2026-04-20 00:33 | 33.86968 | -84.30612 | 998 ft | 11 kts | 193° |
| 2026-04-20 00:33 | 33.86919 | -84.30563 | 998 ft | 11 kts | 112° |
| 2026-04-20 00:33 | 33.86893 | -84.30488 | 1000 ft | 0 kts | 122° |
| 2026-04-20 00:36 | 33.86890 | -84.30481 | 1000 ft | 7 kts | 115° |
| 2026-04-20 00:36 | 33.86883 | -84.30389 | 1002 ft | 12 kts | 33° |
| 2026-04-20 00:36 | 33.86998 | -84.30336 | 1001 ft | 35 kts | 22° |
| 2026-04-20 00:36 | 33.87358 | -84.30166 | 1036 ft | 70 kts | 21° |
| 2026-04-20 00:37 | 33.87826 | -84.29910 | 1224 ft | 78 kts | 22° |
| 2026-04-20 00:37 | 33.88329 | -84.29610 | 1549 ft | 77 kts | 24° |
| 2026-04-20 00:37 | 33.88662 | -84.29066 | 1812 ft | 97 kts | 65° |
| 2026-04-20 00:37 | 33.88671 | -84.28244 | 2251 ft | 91 kts | 86° |
| 2026-04-20 00:38 | 33.88579 | -84.27454 | 2460 ft | 101 kts | 87° |
| 2026-04-20 00:38 | 33.88499 | -84.26622 | 2747 ft | 96 kts | 84° |
| 2026-04-20 00:38 | 33.88427 | -84.25785 | 2939 ft | 103 kts | 82° |
| 2026-04-20 00:38 | 33.88368 | -84.24929 | 3214 ft | 99 kts | 83° |
| 2026-04-20 00:39 | 33.88336 | -84.24128 | 3441 ft | 102 kts | 81° |
| 2026-04-20 00:39 | 33.88280 | -84.23272 | 3699 ft | 101 kts | 85° |
| 2026-04-20 00:39 | 33.88218 | -84.22426 | 3949 ft | 101 kts | 81° |
| 2026-04-20 00:39 | 33.88185 | -84.21560 | 4137 ft | 108 kts | 84° |
| 2026-04-20 00:40 | 33.88135 | -84.20671 | 4414 ft | 105 kts | 83° |
| 2026-04-20 00:40 | 33.88070 | -84.19782 | 4650 ft | 108 kts | 84° |
| 2026-04-20 00:40 | 33.87995 | -84.18891 | 4937 ft | 106 kts | 85° |
| 2026-04-20 00:40 | 33.87887 | -84.17957 | 5034 ft | 122 kts | 87° |
| 2026-04-20 00:41 | 33.87817 | -84.16895 | 5037 ft | 133 kts | 83° |
| 2026-04-20 00:41 | 33.87767 | -84.15742 | 5048 ft | 141 kts | 87° |
| 2026-04-20 00:41 | 33.87714 | -84.14564 | 5077 ft | 145 kts | 82° |
| 2026-04-20 00:41 | 33.87727 | -84.13357 | 5273 ft | 140 kts | 82° |
| 2026-04-20 00:42 | 33.87674 | -84.12242 | 5618 ft | 132 kts | 84° |
| 2026-04-20 00:42 | 33.87622 | -84.11119 | 5804 ft | 136 kts | 84° |
| 2026-04-20 00:42 | 33.87576 | -84.10014 | 6072 ft | 132 kts | 84° |
| 2026-04-20 00:42 | 33.87521 | -84.08906 | 6278 ft | 134 kts | 83° |
| 2026-04-20 00:43 | 33.87458 | -84.07773 | 6465 ft | 137 kts | 85° |
| 2026-04-20 00:43 | 33.87385 | -84.06638 | 6701 ft | 135 kts | 84° |
| 2026-04-20 00:43 | 33.87307 | -84.05494 | 6873 ft | 139 kts | 84° |
| 2026-04-20 00:43 | 33.87236 | -84.04326 | 7048 ft | 141 kts | 83° |
| 2026-04-20 00:44 | 33.87250 | -84.03092 | 7020 ft | 151 kts | 75° |
| 2026-04-20 00:44 | 33.87378 | -84.01820 | 7024 ft | 156 kts | 77° |
| 2026-04-20 00:44 | 33.87400 | -84.00506 | 7079 ft | 159 kts | 82° |
| 2026-04-20 00:44 | 33.87358 | -83.99167 | 7064 ft | 164 kts | 85° |
| 2026-04-20 00:45 | 33.87321 | -83.97798 | 7083 ft | 163 kts | 81° |
| 2026-04-20 00:45 | 33.87315 | -83.96391 | 7035 ft | 168 kts | 84° |
| 2026-04-20 00:45 | 33.87272 | -83.94983 | 7050 ft | 168 kts | 84° |
| 2026-04-20 00:45 | 33.87382 | -83.93614 | 7052 ft | 161 kts | 69° |
| 2026-04-20 00:46 | 33.87635 | -83.92316 | 7051 ft | 162 kts | 69° |
| 2026-04-20 00:46 | 33.87854 | -83.90976 | 7052 ft | 163 kts | 72° |
| 2026-04-20 00:46 | 33.88026 | -83.89625 | 7052 ft | 163 kts | 73° |
| 2026-04-20 00:46 | 33.88188 | -83.88270 | 7053 ft | 164 kts | 73° |
| 2026-04-20 00:47 | 33.88350 | -83.86914 | 7052 ft | 163 kts | 73° |
| 2026-04-20 00:47 | 33.88513 | -83.85558 | 7050 ft | 163 kts | 73° |
| 2026-04-20 00:47 | 33.88676 | -83.84204 | 7056 ft | 164 kts | 73° |
| 2026-04-20 00:47 | 33.88838 | -83.82847 | 7052 ft | 164 kts | 73° |
| 2026-04-20 00:48 | 33.89001 | -83.81493 | 7054 ft | 163 kts | 73° |
| 2026-04-20 00:48 | 33.89161 | -83.80150 | 7067 ft | 164 kts | 73° |
| 2026-04-20 00:48 | 33.89322 | -83.78789 | 7066 ft | 164 kts | 73° |
| 2026-04-20 00:48 | 33.89485 | -83.77430 | 7073 ft | 164 kts | 74° |
| 2026-04-20 00:49 | 33.89648 | -83.76070 | 7070 ft | 164 kts | 74° |
| 2026-04-20 00:49 | 33.89811 | -83.74706 | 7069 ft | 164 kts | 74° |
| 2026-04-20 00:49 | 33.89971 | -83.73355 | 7073 ft | 165 kts | 74° |
| 2026-04-20 00:49 | 33.90133 | -83.71985 | 7073 ft | 165 kts | 74° |
| 2026-04-20 00:50 | 33.90296 | -83.70613 | 7077 ft | 165 kts | 74° |
| 2026-04-20 00:50 | 33.90461 | -83.69229 | 7075 ft | 167 kts | 74° |
| 2026-04-20 00:50 | 33.90625 | -83.67842 | 7082 ft | 168 kts | 74° |
| 2026-04-20 00:50 | 33.90790 | -83.66446 | 7079 ft | 168 kts | 74° |
| 2026-04-20 00:51 | 33.90956 | -83.65044 | 7081 ft | 169 kts | 74° |
| 2026-04-20 00:51 | 33.91121 | -83.63643 | 7082 ft | 169 kts | 74° |
| 2026-04-20 00:51 | 33.91286 | -83.62246 | 7083 ft | 169 kts | 74° |
| 2026-04-20 00:51 | 33.91450 | -83.60856 | 7083 ft | 169 kts | 75° |
| 2026-04-20 00:52 | 33.91615 | -83.59451 | 7082 ft | 169 kts | 74° |
| 2026-04-20 00:52 | 33.91781 | -83.58043 | 7087 ft | 170 kts | 75° |
| 2026-04-20 00:52 | 33.91891 | -83.57109 | 7082 ft | 170 kts | 75° |
| 2026-04-20 00:52 | 33.92057 | -83.55694 | 7081 ft | 170 kts | 75° |
| 2026-04-20 00:53 | 33.92276 | -83.53829 | 7078 ft | 170 kts | 75° |
| 2026-04-20 00:53 | 33.92441 | -83.52421 | 7077 ft | 170 kts | 75° |
| 2026-04-20 00:53 | 33.92552 | -83.51468 | 7076 ft | 170 kts | 75° |
| 2026-04-20 00:53 | 33.92716 | -83.50071 | 7072 ft | 170 kts | 75° |
| 2026-04-20 00:54 | 33.92881 | -83.48656 | 7038 ft | 170 kts | 75° |
| 2026-04-20 00:54 | 33.93046 | -83.47246 | 7040 ft | 170 kts | 75° |
| 2026-04-20 00:54 | 33.93209 | -83.45841 | 7040 ft | 169 kts | 75° |
| 2026-04-20 00:54 | 33.93373 | -83.44437 | 7038 ft | 169 kts | 75° |
| 2026-04-20 00:55 | 33.93537 | -83.43036 | 7039 ft | 169 kts | 75° |
| 2026-04-20 00:55 | 33.93700 | -83.41630 | 7038 ft | 168 kts | 75° |
| 2026-04-20 00:55 | 33.93861 | -83.40238 | 7041 ft | 168 kts | 75° |
| 2026-04-20 00:55 | 33.94025 | -83.38837 | 7036 ft | 169 kts | 75° |
| 2026-04-20 00:56 | 33.94187 | -83.37435 | 7039 ft | 169 kts | 76° |
| 2026-04-20 00:56 | 33.94347 | -83.36051 | 7038 ft | 169 kts | 75° |
| 2026-04-20 00:56 | 33.94509 | -83.34648 | 7036 ft | 169 kts | 75° |
| 2026-04-20 00:56 | 33.94680 | -83.33249 | 7036 ft | 167 kts | 72° |
| 2026-04-20 00:57 | 33.95172 | -83.32031 | 7033 ft | 159 kts | 45° |
| 2026-04-20 00:57 | 33.95951 | -83.31106 | 7034 ft | 157 kts | 38° |
| 2026-04-20 00:57 | 33.96736 | -83.30202 | 7032 ft | 157 kts | 39° |
| 2026-04-20 00:57 | 33.97527 | -83.29287 | 7035 ft | 157 kts | 39° |
| 2026-04-20 00:58 | 33.98317 | -83.28374 | 7038 ft | 157 kts | 39° |
| 2026-04-20 00:58 | 33.99105 | -83.27463 | 7035 ft | 157 kts | 39° |
| 2026-04-20 00:58 | 33.99897 | -83.26548 | 7036 ft | 158 kts | 39° |
| 2026-04-20 00:58 | 34.00690 | -83.25632 | 7035 ft | 157 kts | 39° |
| 2026-04-20 00:59 | 34.01481 | -83.24718 | 7040 ft | 158 kts | 39° |
| 2026-04-20 00:59 | 34.02272 | -83.23803 | 7034 ft | 158 kts | 39° |
| 2026-04-20 00:59 | 34.03055 | -83.22897 | 7037 ft | 157 kts | 39° |
| 2026-04-20 00:59 | 34.03845 | -83.21984 | 7033 ft | 157 kts | 39° |
| 2026-04-20 01:00 | 34.04632 | -83.21073 | 7032 ft | 156 kts | 39° |
| 2026-04-20 01:00 | 34.05410 | -83.20171 | 7042 ft | 155 kts | 39° |
| 2026-04-20 01:00 | 34.06183 | -83.19277 | 7040 ft | 153 kts | 39° |
| 2026-04-20 01:00 | 34.06952 | -83.18387 | 7033 ft | 153 kts | 39° |
| 2026-04-20 01:01 | 34.07719 | -83.17498 | 7031 ft | 153 kts | 39° |
| 2026-04-20 01:01 | 34.08488 | -83.16608 | 7028 ft | 153 kts | 39° |
| 2026-04-20 01:01 | 34.09255 | -83.15719 | 7025 ft | 153 kts | 40° |
| 2026-04-20 01:01 | 34.10023 | -83.14829 | 7025 ft | 153 kts | 39° |
| 2026-04-20 01:02 | 34.10791 | -83.13938 | 7023 ft | 153 kts | 39° |
| 2026-04-20 01:02 | 34.11559 | -83.13047 | 7021 ft | 153 kts | 39° |
| 2026-04-20 01:02 | 34.12331 | -83.12151 | 7021 ft | 154 kts | 39° |
| 2026-04-20 01:02 | 34.13092 | -83.11269 | 7020 ft | 153 kts | 39° |
| 2026-04-20 01:03 | 34.13862 | -83.10375 | 7022 ft | 153 kts | 40° |
| 2026-04-20 01:03 | 34.14633 | -83.09480 | 7023 ft | 154 kts | 40° |
| 2026-04-20 01:03 | 34.15405 | -83.08583 | 7023 ft | 154 kts | 40° |
| 2026-04-20 01:03 | 34.16179 | -83.07684 | 7021 ft | 154 kts | 40° |
| 2026-04-20 01:04 | 34.16943 | -83.06795 | 7024 ft | 154 kts | 40° |
| 2026-04-20 01:04 | 34.17716 | -83.05897 | 7026 ft | 154 kts | 40° |
| 2026-04-20 01:04 | 34.18490 | -83.04998 | 7023 ft | 155 kts | 40° |
| 2026-04-20 01:04 | 34.19267 | -83.04094 | 7022 ft | 155 kts | 40° |
| 2026-04-20 01:05 | 34.20044 | -83.03190 | 7021 ft | 155 kts | 40° |
| 2026-04-20 01:05 | 34.20823 | -83.02283 | 7026 ft | 155 kts | 40° |
| 2026-04-20 01:05 | 34.21591 | -83.01363 | 7022 ft | 156 kts | 42° |
| 2026-04-20 01:05 | 34.22350 | -83.00419 | 7025 ft | 156 kts | 42° |
| 2026-04-20 01:06 | 34.23107 | -82.99478 | 7024 ft | 156 kts | 42° |
| 2026-04-20 01:06 | 34.23870 | -82.98533 | 7022 ft | 157 kts | 42° |
| 2026-04-20 01:06 | 34.24632 | -82.97591 | 7023 ft | 157 kts | 42° |
| 2026-04-20 01:06 | 34.25386 | -82.96658 | 7022 ft | 157 kts | 42° |
| 2026-04-20 01:07 | 34.26152 | -82.95708 | 7023 ft | 158 kts | 43° |
| 2026-04-20 01:07 | 34.26920 | -82.94757 | 7023 ft | 158 kts | 43° |
| 2026-04-20 01:07 | 34.27685 | -82.93810 | 7023 ft | 158 kts | 43° |
| 2026-04-20 01:07 | 34.28453 | -82.92858 | 7021 ft | 158 kts | 43° |
| 2026-04-20 01:08 | 34.29222 | -82.91904 | 7020 ft | 158 kts | 43° |
| 2026-04-20 01:08 | 34.29992 | -82.90950 | 7019 ft | 158 kts | 43° |
| 2026-04-20 01:08 | 34.30761 | -82.89996 | 7020 ft | 158 kts | 43° |
| 2026-04-20 01:08 | 34.31534 | -82.89037 | 7019 ft | 159 kts | 43° |
| 2026-04-20 01:09 | 34.32296 | -82.88091 | 7023 ft | 159 kts | 43° |
| 2026-04-20 01:09 | 34.33067 | -82.87134 | 7021 ft | 159 kts | 43° |
| 2026-04-20 01:09 | 34.33841 | -82.86173 | 7022 ft | 159 kts | 43° |
| 2026-04-20 01:09 | 34.34612 | -82.85215 | 7024 ft | 159 kts | 44° |
| 2026-04-20 01:10 | 34.35387 | -82.84252 | 7024 ft | 160 kts | 43° |
| 2026-04-20 01:10 | 34.36941 | -82.82322 | 6997 ft | 162 kts | 44° |
| 2026-04-20 01:10 | 34.37734 | -82.81335 | 6882 ft | 163 kts | 44° |
| 2026-04-20 01:11 | 34.38526 | -82.80349 | 6761 ft | 163 kts | 44° |
| 2026-04-20 01:11 | 34.39310 | -82.79374 | 6620 ft | 164 kts | 44° |
| 2026-04-20 01:11 | 34.40106 | -82.78384 | 6472 ft | 164 kts | 44° |
| 2026-04-20 01:11 | 34.40902 | -82.77392 | 6318 ft | 165 kts | 44° |
| 2026-04-20 01:12 | 34.41703 | -82.76394 | 6161 ft | 165 kts | 44° |
| 2026-04-20 01:12 | 34.42505 | -82.75396 | 6008 ft | 165 kts | 44° |
| 2026-04-20 01:12 | 34.43305 | -82.74399 | 5856 ft | 165 kts | 44° |
| 2026-04-20 01:12 | 34.44101 | -82.73407 | 5700 ft | 164 kts | 44° |
| 2026-04-20 01:13 | 34.44897 | -82.72415 | 5554 ft | 164 kts | 44° |
| 2026-04-20 01:13 | 34.45694 | -82.71421 | 5400 ft | 164 kts | 44° |
| 2026-04-20 01:13 | 34.46486 | -82.70432 | 5256 ft | 164 kts | 44° |
| 2026-04-20 01:13 | 34.47285 | -82.69435 | 5099 ft | 164 kts | 44° |
| 2026-04-20 01:14 | 34.48082 | -82.68441 | 4946 ft | 165 kts | 44° |
| 2026-04-20 01:14 | 34.48881 | -82.67443 | 4794 ft | 164 kts | 44° |
| 2026-04-20 01:14 | 34.49665 | -82.66463 | 4641 ft | 164 kts | 43° |
| 2026-04-20 01:14 | 34.50461 | -82.65470 | 4491 ft | 164 kts | 43° |
| 2026-04-20 01:15 | 34.51248 | -82.64485 | 4339 ft | 162 kts | 43° |
| 2026-04-20 01:15 | 34.52030 | -82.63509 | 4183 ft | 160 kts | 43° |
| 2026-04-20 01:15 | 34.52803 | -82.62541 | 4027 ft | 159 kts | 43° |
| 2026-04-20 01:15 | 34.53570 | -82.61582 | 3876 ft | 158 kts | 43° |
| 2026-04-20 01:16 | 34.54330 | -82.60631 | 3727 ft | 156 kts | 43° |
| 2026-04-20 01:16 | 34.55083 | -82.59690 | 3571 ft | 155 kts | 43° |
| 2026-04-20 01:16 | 34.55834 | -82.58750 | 3424 ft | 154 kts | 42° |
| 2026-04-20 01:16 | 34.56575 | -82.57821 | 3270 ft | 153 kts | 42° |
| 2026-04-20 01:17 | 34.57309 | -82.56902 | 3122 ft | 151 kts | 42° |
| 2026-04-20 01:17 | 34.58022 | -82.56008 | 3038 ft | 146 kts | 42° |
| 2026-04-20 01:17 | 34.58708 | -82.55147 | 3033 ft | 139 kts | 42° |
| 2026-04-20 01:17 | 34.59367 | -82.54327 | 3017 ft | 131 kts | 40° |
| 2026-04-20 01:18 | 34.60059 | -82.53659 | 3021 ft | 125 kts | 35° |
| 2026-04-20 01:18 | 34.60732 | -82.52998 | 2950 ft | 126 kts | 34° |
| 2026-04-20 01:18 | 34.61426 | -82.52308 | 2834 ft | 131 kts | 36° |
| 2026-04-20 01:18 | 34.62128 | -82.51595 | 2718 ft | 132 kts | 35° |
| 2026-04-20 01:19 | 34.62836 | -82.50874 | 2643 ft | 130 kts | 34° |
| 2026-04-20 01:19 | 34.63509 | -82.50188 | 2641 ft | 123 kts | 35° |
| 2026-04-20 01:19 | 34.64156 | -82.49529 | 2639 ft | 120 kts | 35° |
| 2026-04-20 01:19 | 34.64789 | -82.48884 | 2629 ft | 117 kts | 34° |
| 2026-04-20 01:20 | 34.65404 | -82.48258 | 2641 ft | 115 kts | 34° |
| 2026-04-20 01:20 | 34.66008 | -82.47643 | 2648 ft | 114 kts | 34° |
| 2026-04-20 01:20 | 34.66622 | -82.47024 | 2619 ft | 114 kts | 36° |
| 2026-04-20 01:20 | 34.67222 | -82.46412 | 2624 ft | 111 kts | 35° |
| 2026-04-20 01:21 | 34.67810 | -82.45816 | 2621 ft | 109 kts | 34° |
| 2026-04-20 01:21 | 34.68383 | -82.45222 | 2586 ft | 105 kts | 33° |
| 2026-04-20 01:21 | 34.68929 | -82.44705 | 2416 ft | 95 kts | 36° |
| 2026-04-20 01:21 | 34.69382 | -82.44183 | 2302 ft | 87 kts | 39° |
| 2026-04-20 01:22 | 34.69815 | -82.43707 | 2195 ft | 82 kts | 33° |
| 2026-04-20 01:22 | 34.70269 | -82.43276 | 2081 ft | 79 kts | 33° |
| 2026-04-20 01:22 | 34.70676 | -82.42892 | 2076 ft | 72 kts | 28° |
| 2026-04-20 01:22 | 34.71069 | -82.42495 | 1963 ft | 75 kts | 36° |
| 2026-04-20 01:23 | 34.71449 | -82.42087 | 1864 ft | 75 kts | 31° |
| 2026-04-20 01:23 | 34.71875 | -82.41696 | 1768 ft | 77 kts | 34° |
| 2026-04-20 01:23 | 34.72249 | -82.41261 | 1721 ft | 74 kts | 40° |
| 2026-04-20 01:23 | 34.72677 | -82.40837 | 1596 ft | 83 kts | 34° |
| 2026-04-20 01:24 | 34.73136 | -82.40408 | 1542 ft | 81 kts | 38° |
| 2026-04-20 01:24 | 34.73549 | -82.39946 | 1494 ft | 84 kts | 40° |
| 2026-04-20 01:24 | 34.74004 | -82.39492 | 1362 ft | 85 kts | 33° |
| 2026-04-20 01:24 | 34.74447 | -82.39032 | 1259 ft | 78 kts | 37° |
| 2026-04-20 01:25 | 34.74850 | -82.38638 | 1081 ft | 71 kts | 38° |
| 2026-04-20 01:25 | 34.75193 | -82.38284 | 965 ft | 57 kts | 36° |
| 2026-04-20 01:25 | 34.75453 | -82.38026 | 948 ft | 37 kts | 44° |
| 2026-04-20 01:25 | 34.75606 | -82.37877 | 946 ft | 22 kts | 31° |
| 2026-04-20 01:26 | 34.75691 | -82.37785 | 946 ft | 16 kts | 37° |
| 2026-04-20 01:26 | 34.75756 | -82.37696 | 944 ft | 13 kts | 85° |
| 2026-04-20 01:26 | 34.75720 | -82.37626 | 943 ft | 0 kts | 126° |
| 2026-04-20 01:28 | 34.75719 | -82.37625 | 943 ft | 1 kts | 126° |
| 2026-04-20 01:29 | 34.75694 | -82.37587 | 943 ft | 14 kts | 131° |
| 2026-04-20 01:29 | 34.75633 | -82.37520 | 943 ft | 12 kts | 135° |
| 2026-04-20 01:29 | 34.75578 | -82.37467 | 945 ft | 10 kts | 220° |
| 2026-04-20 01:29 | 34.75574 | -82.37471 | 945 ft | 0 kts | 226° |